Terminal Aerodrome Forecast
Issued by NWS

Home | Current Version | Previous Version | Text Only | Print | Product List | Glossary On
Versions: 1 2 3 4 5 6 7 8 9 10 11 12 13 14 15
549
FTAK31 PAJN 082333
TAFAYA
TAF
PAYA 082333Z 0900/0924 08004KT P6SM VCFG FEW020 SCT060 OVC200
     FM090300 07004KT 4SM -RA BR FEW007 SCT010 OVC025
     FM090600 06010KT 2SM -RA BR BKN006 OVC010
     FM091400 24006KT P6SM -SHRA SCT010 BKN025 OVC040
      AMD LTD TO CLD VIS AND WIND 0909/0912=

USA.gov is the U.S. government's official web portal to all federal, state and local government web resources and services.